sensor_id;sensor_type;location;lat;lon;timestamp;temperature;humidity
18998;DHT22;9632;51.018;4.284;2024-03-02T00:00:02;9.20;99.90
18998;DHT22;9632;51.018;4.284;2024-03-02T00:02:45;9.20;99.90
18998;DHT22;9632;51.018;4.284;2024-03-02T00:05:12;9.20;99.90
18998;DHT22;9632;51.018;4.284;2024-03-02T00:07:42;9.20;99.90
18998;DHT22;9632;51.018;4.284;2024-03-02T00:10:10;9.10;99.90
18998;DHT22;9632;51.018;4.284;2024-03-02T00:12:40;9.10;99.90
18998;DHT22;9632;51.018;4.284;2024-03-02T00:15:53;9.10;99.90
18998;DHT22;9632;51.018;4.284;2024-03-02T00:17:56;9.20;99.90
18998;DHT22;9632;51.018;4.284;2024-03-02T00:20:22;9.20;99.90
18998;DHT22;9632;51.018;4.284;2024-03-02T00:22:51;9.20;99.90
18998;DHT22;9632;51.018;4.284;2024-03-02T00:25:17;9.10;99.90
18998;DHT22;9632;51.018;4.284;2024-03-02T00:27:46;9.20;99.90
18998;DHT22;9632;51.018;4.284;2024-03-02T00:33:10;9.10;99.90
18998;DHT22;9632;51.018;4.284;2024-03-02T00:35:36;9.10;99.90
18998;DHT22;9632;51.018;4.284;2024-03-02T00:38:05;9.00;99.90
18998;DHT22;9632;51.018;4.284;2024-03-02T00:40:31;9.10;99.90
18998;DHT22;9632;51.018;4.284;2024-03-02T00:42:58;9.10;99.90
18998;DHT22;9632;51.018;4.284;2024-03-02T00:45:24;9.10;99.90
18998;DHT22;9632;51.018;4.284;2024-03-02T00:47:51;9.10;99.90
18998;DHT22;9632;51.018;4.284;2024-03-02T00:50:17;9.10;99.90
18998;DHT22;9632;51.018;4.284;2024-03-02T00:52:43;9.10;99.90
18998;DHT22;9632;51.018;4.284;2024-03-02T00:55:09;9.10;99.90
18998;DHT22;9632;51.018;4.284;2024-03-02T00:57:35;9.10;99.90
18998;DHT22;9632;51.018;4.284;2024-03-02T01:00:01;9.10;99.90
18998;DHT22;9632;51.018;4.284;2024-03-02T01:02:28;9.10;99.90
18998;DHT22;9632;51.018;4.284;2024-03-02T01:04:54;9.10;99.90
18998;DHT22;9632;51.018;4.284;2024-03-02T01:07:20;9.20;99.90
18998;DHT22;9632;51.018;4.284;2024-03-02T01:09:46;9.20;99.90
18998;DHT22;9632;51.018;4.284;2024-03-02T01:12:11;9.20;99.90
18998;DHT22;9632;51.018;4.284;2024-03-02T01:14:37;9.20;99.90
18998;DHT22;9632;51.018;4.284;2024-03-02T01:17:02;9.20;99.90
18998;DHT22;9632;51.018;4.284;2024-03-02T01:19:30;9.20;99.90
18998;DHT22;9632;51.018;4.284;2024-03-02T01:21:55;9.10;99.90
18998;DHT22;9632;51.018;4.284;2024-03-02T01:24:21;9.20;99.90
18998;DHT22;9632;51.018;4.284;2024-03-02T01:26:47;9.20;99.90
18998;DHT22;9632;51.018;4.284;2024-03-02T01:29:12;9.20;99.90
18998;DHT22;9632;51.018;4.284;2024-03-02T01:31:38;9.20;99.90
18998;DHT22;9632;51.018;4.284;2024-03-02T01:34:07;9.20;99.90
18998;DHT22;9632;51.018;4.284;2024-03-02T01:36:33;9.20;99.90
18998;DHT22;9632;51.018;4.284;2024-03-02T01:38:58;9.30;99.90
18998;DHT22;9632;51.018;4.284;2024-03-02T01:41:24;9.30;99.90
18998;DHT22;9632;51.018;4.284;2024-03-02T01:43:50;9.30;99.90
18998;DHT22;9632;51.018;4.284;2024-03-02T01:46:15;9.20;99.90
18998;DHT22;9632;51.018;4.284;2024-03-02T01:48:41;9.20;99.90
18998;DHT22;9632;51.018;4.284;2024-03-02T01:51:07;9.20;99.90
18998;DHT22;9632;51.018;4.284;2024-03-02T01:53:33;9.20;99.90
18998;DHT22;9632;51.018;4.284;2024-03-02T01:55:59;9.20;99.90
18998;DHT22;9632;51.018;4.284;2024-03-02T01:58:27;9.10;99.90
18998;DHT22;9632;51.018;4.284;2024-03-02T02:00:52;9.10;99.90
18998;DHT22;9632;51.018;4.284;2024-03-02T02:03:18;9.20;99.90
18998;DHT22;9632;51.018;4.284;2024-03-02T02:05:44;9.10;99.90
18998;DHT22;9632;51.018;4.284;2024-03-02T02:08:10;9.20;99.90
18998;DHT22;9632;51.018;4.284;2024-03-02T02:10:36;9.20;99.90
18998;DHT22;9632;51.018;4.284;2024-03-02T02:13:01;9.20;99.90
18998;DHT22;9632;51.018;4.284;2024-03-02T02:15:31;9.20;99.90
18998;DHT22;9632;51.018;4.284;2024-03-02T02:17:58;9.20;99.90
18998;DHT22;9632;51.018;4.284;2024-03-02T02:20:24;9.20;99.90
18998;DHT22;9632;51.018;4.284;2024-03-02T02:23:00;9.20;99.90
18998;DHT22;9632;51.018;4.284;2024-03-02T02:25:26;9.20;99.90
18998;DHT22;9632;51.018;4.284;2024-03-02T02:27:53;9.10;99.90
18998;DHT22;9632;51.018;4.284;2024-03-02T02:30:23;9.10;99.90
18998;DHT22;9632;51.018;4.284;2024-03-02T02:32:49;9.10;99.90
18998;DHT22;9632;51.018;4.284;2024-03-02T02:35:15;9.10;99.90
18998;DHT22;9632;51.018;4.284;2024-03-02T02:37:41;9.10;99.90
18998;DHT22;9632;51.018;4.284;2024-03-02T02:40:07;9.20;99.90
18998;DHT22;9632;51.018;4.284;2024-03-02T02:42:34;9.10;99.90
18998;DHT22;9632;51.018;4.284;2024-03-02T02:45:00;9.10;99.90
18998;DHT22;9632;51.018;4.284;2024-03-02T02:47:26;9.10;99.90
18998;DHT22;9632;51.018;4.284;2024-03-02T02:49:51;9.10;99.90
18998;DHT22;9632;51.018;4.284;2024-03-02T02:52:17;9.10;99.90
18998;DHT22;9632;51.018;4.284;2024-03-02T02:54:44;9.10;99.90
18998;DHT22;9632;51.018;4.284;2024-03-02T02:57:09;9.10;99.90
18998;DHT22;9632;51.018;4.284;2024-03-02T02:59:35;9.10;99.90
18998;DHT22;9632;51.018;4.284;2024-03-02T03:02:02;9.10;99.90
18998;DHT22;9632;51.018;4.284;2024-03-02T03:04:28;9.10;99.90
18998;DHT22;9632;51.018;4.284;2024-03-02T03:06:53;9.10;99.90
18998;DHT22;9632;51.018;4.284;2024-03-02T03:09:19;9.10;99.90
18998;DHT22;9632;51.018;4.284;2024-03-02T03:11:44;9.10;99.90
18998;DHT22;9632;51.018;4.284;2024-03-02T03:14:10;9.10;99.90
18998;DHT22;9632;51.018;4.284;2024-03-02T03:16:36;9.10;99.90
18998;DHT22;9632;51.018;4.284;2024-03-02T03:19:01;9.10;99.90
18998;DHT22;9632;51.018;4.284;2024-03-02T03:21:27;9.10;99.90
18998;DHT22;9632;51.018;4.284;2024-03-02T03:23:52;9.10;99.90
18998;DHT22;9632;51.018;4.284;2024-03-02T03:26:18;9.10;99.90
18998;DHT22;9632;51.018;4.284;2024-03-02T03:28:44;9.10;99.90
18998;DHT22;9632;51.018;4.284;2024-03-02T03:31:10;9.10;99.90
18998;DHT22;9632;51.018;4.284;2024-03-02T03:33:36;9.10;99.90
18998;DHT22;9632;51.018;4.284;2024-03-02T03:36:01;9.10;99.90
18998;DHT22;9632;51.018;4.284;2024-03-02T03:38:29;9.10;99.90
18998;DHT22;9632;51.018;4.284;2024-03-02T03:40:55;9.10;99.90
18998;DHT22;9632;51.018;4.284;2024-03-02T03:43:20;9.00;99.90
18998;DHT22;9632;51.018;4.284;2024-03-02T03:45:46;9.00;99.90
18998;DHT22;9632;51.018;4.284;2024-03-02T03:48:12;9.00;99.90
18998;DHT22;9632;51.018;4.284;2024-03-02T03:50:37;9.00;99.90
18998;DHT22;9632;51.018;4.284;2024-03-02T03:53:03;9.00;99.90
18998;DHT22;9632;51.018;4.284;2024-03-02T03:55:29;9.00;99.90
18998;DHT22;9632;51.018;4.284;2024-03-02T03:57:55;9.00;99.90
18998;DHT22;9632;51.018;4.284;2024-03-02T04:00:20;9.00;99.90
18998;DHT22;9632;51.018;4.284;2024-03-02T04:02:46;9.00;99.90
18998;DHT22;9632;51.018;4.284;2024-03-02T04:05:12;8.90;99.90
18998;DHT22;9632;51.018;4.284;2024-03-02T04:07:37;9.00;99.90
18998;DHT22;9632;51.018;4.284;2024-03-02T04:10:09;9.00;99.90
18998;DHT22;9632;51.018;4.284;2024-03-02T04:12:38;9.00;99.90
18998;DHT22;9632;51.018;4.284;2024-03-02T04:15:07;9.00;99.90
18998;DHT22;9632;51.018;4.284;2024-03-02T04:17:34;8.90;99.90
18998;DHT22;9632;51.018;4.284;2024-03-02T04:20:01;9.00;99.90
18998;DHT22;9632;51.018;4.284;2024-03-02T04:22:27;8.90;99.90
18998;DHT22;9632;51.018;4.284;2024-03-02T04:24:53;8.90;99.90
18998;DHT22;9632;51.018;4.284;2024-03-02T04:27:19;8.90;99.90
18998;DHT22;9632;51.018;4.284;2024-03-02T04:29:45;8.90;99.90
18998;DHT22;9632;51.018;4.284;2024-03-02T04:32:11;8.90;99.90
18998;DHT22;9632;51.018;4.284;2024-03-02T04:34:36;8.90;99.90
18998;DHT22;9632;51.018;4.284;2024-03-02T04:37:02;8.80;99.90
18998;DHT22;9632;51.018;4.284;2024-03-02T04:39:27;8.80;99.90
18998;DHT22;9632;51.018;4.284;2024-03-02T04:41:53;8.80;99.90
18998;DHT22;9632;51.018;4.284;2024-03-02T04:44:19;8.80;99.90
18998;DHT22;9632;51.018;4.284;2024-03-02T04:46:45;8.80;99.90
18998;DHT22;9632;51.018;4.284;2024-03-02T04:49:11;8.80;99.90
18998;DHT22;9632;51.018;4.284;2024-03-02T04:51:36;8.70;99.90
18998;DHT22;9632;51.018;4.284;2024-03-02T04:54:02;8.70;99.90
18998;DHT22;9632;51.018;4.284;2024-03-02T04:56:27;8.70;99.90
18998;DHT22;9632;51.018;4.284;2024-03-02T04:59:11;8.80;99.90
18998;DHT22;9632;51.018;4.284;2024-03-02T05:01:37;8.70;99.90
18998;DHT22;9632;51.018;4.284;2024-03-02T05:04:03;8.60;99.90
18998;DHT22;9632;51.018;4.284;2024-03-02T05:06:29;8.70;99.90
18998;DHT22;9632;51.018;4.284;2024-03-02T05:08:55;8.70;99.90
18998;DHT22;9632;51.018;4.284;2024-03-02T05:11:21;8.60;99.90
18998;DHT22;9632;51.018;4.284;2024-03-02T05:14:03;8.70;99.90
18998;DHT22;9632;51.018;4.284;2024-03-02T05:16:29;8.70;99.90
18998;DHT22;9632;51.018;4.284;2024-03-02T05:18:54;8.60;99.90
18998;DHT22;9632;51.018;4.284;2024-03-02T05:21:20;8.60;99.90
18998;DHT22;9632;51.018;4.284;2024-03-02T05:23:46;8.60;99.90
18998;DHT22;9632;51.018;4.284;2024-03-02T05:26:12;8.60;99.90
18998;DHT22;9632;51.018;4.284;2024-03-02T05:28:40;8.60;99.90
18998;DHT22;9632;51.018;4.284;2024-03-02T05:31:06;8.70;99.90
18998;DHT22;9632;51.018;4.284;2024-03-02T05:33:32;8.60;99.90
18998;DHT22;9632;51.018;4.284;2024-03-02T05:35:58;8.60;99.90
18998;DHT22;9632;51.018;4.284;2024-03-02T05:38:24;8.50;99.90
18998;DHT22;9632;51.018;4.284;2024-03-02T05:40:50;8.50;99.90
18998;DHT22;9632;51.018;4.284;2024-03-02T05:43:15;8.50;99.90
18998;DHT22;9632;51.018;4.284;2024-03-02T05:45:41;8.50;99.90
18998;DHT22;9632;51.018;4.284;2024-03-02T05:48:07;8.50;99.90
18998;DHT22;9632;51.018;4.284;2024-03-02T05:50:33;8.50;99.90
18998;DHT22;9632;51.018;4.284;2024-03-02T05:52:59;8.50;99.90
18998;DHT22;9632;51.018;4.284;2024-03-02T05:55:24;8.40;99.90
18998;DHT22;9632;51.018;4.284;2024-03-02T05:57:50;8.40;99.90
18998;DHT22;9632;51.018;4.284;2024-03-02T06:00:31;8.40;99.90
18998;DHT22;9632;51.018;4.284;2024-03-02T06:02:57;8.40;99.90
18998;DHT22;9632;51.018;4.284;2024-03-02T06:05:22;8.40;99.90
18998;DHT22;9632;51.018;4.284;2024-03-02T06:07:48;8.30;99.90
18998;DHT22;9632;51.018;4.284;2024-03-02T06:10:14;8.30;99.90
18998;DHT22;9632;51.018;4.284;2024-03-02T06:12:40;8.30;99.90
18998;DHT22;9632;51.018;4.284;2024-03-02T06:15:06;8.20;99.90
18998;DHT22;9632;51.018;4.284;2024-03-02T06:17:32;8.20;99.90
18998;DHT22;9632;51.018;4.284;2024-03-02T06:19:57;8.20;99.90
18998;DHT22;9632;51.018;4.284;2024-03-02T06:22:23;8.20;99.90
18998;DHT22;9632;51.018;4.284;2024-03-02T06:24:50;8.20;99.90
18998;DHT22;9632;51.018;4.284;2024-03-02T06:27:16;8.10;99.90
18998;DHT22;9632;51.018;4.284;2024-03-02T06:29:42;8.10;99.90
18998;DHT22;9632;51.018;4.284;2024-03-02T06:32:07;8.10;99.90
18998;DHT22;9632;51.018;4.284;2024-03-02T06:34:33;8.10;99.90
18998;DHT22;9632;51.018;4.284;2024-03-02T06:36:59;8.10;99.90
18998;DHT22;9632;51.018;4.284;2024-03-02T06:39:24;8.10;99.90
18998;DHT22;9632;51.018;4.284;2024-03-02T06:41:51;8.10;99.90
18998;DHT22;9632;51.018;4.284;2024-03-02T06:44:17;8.10;99.90
18998;DHT22;9632;51.018;4.284;2024-03-02T06:46:43;8.10;99.90
18998;DHT22;9632;51.018;4.284;2024-03-02T06:49:08;8.10;99.90
18998;DHT22;9632;51.018;4.284;2024-03-02T06:51:36;8.10;99.90
18998;DHT22;9632;51.018;4.284;2024-03-02T06:54:02;8.10;99.90
18998;DHT22;9632;51.018;4.284;2024-03-02T06:56:27;8.10;99.90
18998;DHT22;9632;51.018;4.284;2024-03-02T06:58:53;8.10;99.90
18998;DHT22;9632;51.018;4.284;2024-03-02T07:01:19;8.10;99.90
18998;DHT22;9632;51.018;4.284;2024-03-02T07:03:45;8.10;99.90
18998;DHT22;9632;51.018;4.284;2024-03-02T07:06:11;8.20;99.90
18998;DHT22;9632;51.018;4.284;2024-03-02T07:08:37;8.20;99.90
18998;DHT22;9632;51.018;4.284;2024-03-02T07:11:02;8.20;99.90
18998;DHT22;9632;51.018;4.284;2024-03-02T07:13:28;8.30;99.90
18998;DHT22;9632;51.018;4.284;2024-03-02T07:15:54;8.30;99.90
18998;DHT22;9632;51.018;4.284;2024-03-02T07:18:31;8.40;99.90
18998;DHT22;9632;51.018;4.284;2024-03-02T07:20:57;8.40;99.90
18998;DHT22;9632;51.018;4.284;2024-03-02T07:23:29;8.40;99.90
18998;DHT22;9632;51.018;4.284;2024-03-02T07:25:56;8.50;99.90
18998;DHT22;9632;51.018;4.284;2024-03-02T07:28:22;8.50;99.90
18998;DHT22;9632;51.018;4.284;2024-03-02T07:31:04;8.60;99.90
18998;DHT22;9632;51.018;4.284;2024-03-02T07:33:30;8.70;99.90
18998;DHT22;9632;51.018;4.284;2024-03-02T07:35:56;8.80;99.90
18998;DHT22;9632;51.018;4.284;2024-03-02T07:38:22;8.90;99.90
18998;DHT22;9632;51.018;4.284;2024-03-02T07:40:48;9.00;99.90
18998;DHT22;9632;51.018;4.284;2024-03-02T07:43:20;9.10;99.90
18998;DHT22;9632;51.018;4.284;2024-03-02T07:45:46;9.20;99.90
18998;DHT22;9632;51.018;4.284;2024-03-02T07:48:12;9.30;99.90
18998;DHT22;9632;51.018;4.284;2024-03-02T07:50:37;9.30;99.90
18998;DHT22;9632;51.018;4.284;2024-03-02T07:53:04;9.40;99.90
18998;DHT22;9632;51.018;4.284;2024-03-02T07:55:30;9.50;99.90
18998;DHT22;9632;51.018;4.284;2024-03-02T07:57:59;9.50;99.90
18998;DHT22;9632;51.018;4.284;2024-03-02T08:00:25;9.70;99.90
18998;DHT22;9632;51.018;4.284;2024-03-02T08:02:52;9.70;99.90
18998;DHT22;9632;51.018;4.284;2024-03-02T08:05:18;9.90;99.90
18998;DHT22;9632;51.018;4.284;2024-03-02T08:07:46;10.00;99.90
18998;DHT22;9632;51.018;4.284;2024-03-02T08:10:13;10.10;99.90
18998;DHT22;9632;51.018;4.284;2024-03-02T08:12:38;10.20;99.90
18998;DHT22;9632;51.018;4.284;2024-03-02T08:15:04;10.30;99.90
18998;DHT22;9632;51.018;4.284;2024-03-02T08:17:30;10.40;99.90
18998;DHT22;9632;51.018;4.284;2024-03-02T08:19:56;10.40;99.90
18998;DHT22;9632;51.018;4.284;2024-03-02T08:22:23;10.50;99.90
18998;DHT22;9632;51.018;4.284;2024-03-02T08:24:51;10.50;99.90
18998;DHT22;9632;51.018;4.284;2024-03-02T08:27:16;10.50;99.90
18998;DHT22;9632;51.018;4.284;2024-03-02T08:29:42;10.60;99.90
18998;DHT22;9632;51.018;4.284;2024-03-02T08:32:08;10.60;99.90
18998;DHT22;9632;51.018;4.284;2024-03-02T08:34:33;10.60;99.90
18998;DHT22;9632;51.018;4.284;2024-03-02T08:37:04;10.60;99.90
18998;DHT22;9632;51.018;4.284;2024-03-02T08:39:29;10.80;99.90
18998;DHT22;9632;51.018;4.284;2024-03-02T08:41:55;10.80;99.90
18998;DHT22;9632;51.018;4.284;2024-03-02T08:44:21;10.80;99.90
18998;DHT22;9632;51.018;4.284;2024-03-02T08:46:47;10.80;99.90
18998;DHT22;9632;51.018;4.284;2024-03-02T08:49:13;10.90;99.90
18998;DHT22;9632;51.018;4.284;2024-03-02T08:51:38;11.00;99.90
18998;DHT22;9632;51.018;4.284;2024-03-02T08:54:04;11.00;99.90
18998;DHT22;9632;51.018;4.284;2024-03-02T08:56:31;11.00;99.90
18998;DHT22;9632;51.018;4.284;2024-03-02T08:58:57;11.10;99.90
18998;DHT22;9632;51.018;4.284;2024-03-02T09:01:22;11.10;99.90
18998;DHT22;9632;51.018;4.284;2024-03-02T09:03:49;11.00;99.90
18998;DHT22;9632;51.018;4.284;2024-03-02T09:06:15;11.10;99.90
18998;DHT22;9632;51.018;4.284;2024-03-02T09:08:43;11.20;99.90
18998;DHT22;9632;51.018;4.284;2024-03-02T09:11:10;11.20;99.90
18998;DHT22;9632;51.018;4.284;2024-03-02T09:13:36;11.20;99.90
18998;DHT22;9632;51.018;4.284;2024-03-02T09:16:03;11.30;99.90
18998;DHT22;9632;51.018;4.284;2024-03-02T09:18:29;11.20;99.90
18998;DHT22;9632;51.018;4.284;2024-03-02T09:20:55;11.30;99.90
18998;DHT22;9632;51.018;4.284;2024-03-02T09:23:21;11.40;99.90
18998;DHT22;9632;51.018;4.284;2024-03-02T09:25:46;11.50;99.90
18998;DHT22;9632;51.018;4.284;2024-03-02T09:28:12;11.70;99.90
18998;DHT22;9632;51.018;4.284;2024-03-02T09:30:38;11.60;99.90
18998;DHT22;9632;51.018;4.284;2024-03-02T09:33:04;11.70;99.90
18998;DHT22;9632;51.018;4.284;2024-03-02T09:35:29;11.70;99.90
18998;DHT22;9632;51.018;4.284;2024-03-02T09:37:55;11.70;99.90
18998;DHT22;9632;51.018;4.284;2024-03-02T09:40:24;11.70;99.90
18998;DHT22;9632;51.018;4.284;2024-03-02T09:42:51;11.70;99.90
18998;DHT22;9632;51.018;4.284;2024-03-02T09:45:26;11.70;99.90
18998;DHT22;9632;51.018;4.284;2024-03-02T09:47:52;11.80;99.90
18998;DHT22;9632;51.018;4.284;2024-03-02T09:50:17;11.80;99.90
18998;DHT22;9632;51.018;4.284;2024-03-02T09:52:43;11.80;99.90
18998;DHT22;9632;51.018;4.284;2024-03-02T09:55:09;11.90;99.90
18998;DHT22;9632;51.018;4.284;2024-03-02T09:57:36;11.90;99.90
18998;DHT22;9632;51.018;4.284;2024-03-02T10:00:01;12.00;99.90
18998;DHT22;9632;51.018;4.284;2024-03-02T10:02:27;12.00;99.90
18998;DHT22;9632;51.018;4.284;2024-03-02T10:04:53;12.00;99.90
18998;DHT22;9632;51.018;4.284;2024-03-02T10:07:19;12.00;99.90
18998;DHT22;9632;51.018;4.284;2024-03-02T10:09:47;11.90;99.90
18998;DHT22;9632;51.018;4.284;2024-03-02T10:12:15;11.80;99.90
18998;DHT22;9632;51.018;4.284;2024-03-02T10:14:41;11.70;99.90
18998;DHT22;9632;51.018;4.284;2024-03-02T10:17:11;11.70;99.90
18998;DHT22;9632;51.018;4.284;2024-03-02T10:19:38;11.70;99.90
18998;DHT22;9632;51.018;4.284;2024-03-02T10:22:06;11.80;99.90
18998;DHT22;9632;51.018;4.284;2024-03-02T10:24:42;11.80;99.90
18998;DHT22;9632;51.018;4.284;2024-03-02T10:27:31;11.90;99.90
18998;DHT22;9632;51.018;4.284;2024-03-02T10:29:59;12.00;99.90
18998;DHT22;9632;51.018;4.284;2024-03-02T10:32:28;12.00;99.90
18998;DHT22;9632;51.018;4.284;2024-03-02T10:34:54;12.10;99.90
18998;DHT22;9632;51.018;4.284;2024-03-02T10:37:21;12.20;99.90
18998;DHT22;9632;51.018;4.284;2024-03-02T10:39:47;12.20;99.90
18998;DHT22;9632;51.018;4.284;2024-03-02T10:42:14;12.30;99.90
18998;DHT22;9632;51.018;4.284;2024-03-02T10:44:40;12.40;99.90
18998;DHT22;9632;51.018;4.284;2024-03-02T10:47:06;12.50;99.90
18998;DHT22;9632;51.018;4.284;2024-03-02T10:49:34;12.50;99.90
18998;DHT22;9632;51.018;4.284;2024-03-02T10:52:00;12.60;99.90
18998;DHT22;9632;51.018;4.284;2024-03-02T10:54:26;12.60;99.90
18998;DHT22;9632;51.018;4.284;2024-03-02T10:56:53;12.50;99.90
18998;DHT22;9632;51.018;4.284;2024-03-02T11:01:55;12.60;99.90
18998;DHT22;9632;51.018;4.284;2024-03-02T11:04:24;12.60;99.90
18998;DHT22;9632;51.018;4.284;2024-03-02T11:06:51;12.70;99.90
18998;DHT22;9632;51.018;4.284;2024-03-02T11:09:22;12.70;99.90
18998;DHT22;9632;51.018;4.284;2024-03-02T11:12:27;12.70;99.90
18998;DHT22;9632;51.018;4.284;2024-03-02T11:14:55;12.70;99.90
18998;DHT22;9632;51.018;4.284;2024-03-02T11:17:21;12.70;99.90
18998;DHT22;9632;51.018;4.284;2024-03-02T11:19:49;12.60;99.90
18998;DHT22;9632;51.018;4.284;2024-03-02T11:22:15;12.60;99.90
18998;DHT22;9632;51.018;4.284;2024-03-02T11:24:51;12.60;99.90
18998;DHT22;9632;51.018;4.284;2024-03-02T11:33:10;12.80;99.90
18998;DHT22;9632;51.018;4.284;2024-03-02T11:35:37;12.80;99.90
18998;DHT22;9632;51.018;4.284;2024-03-02T11:38:03;12.80;99.90
18998;DHT22;9632;51.018;4.284;2024-03-02T11:40:30;12.80;99.90
18998;DHT22;9632;51.018;4.284;2024-03-02T11:42:56;12.80;99.90
18998;DHT22;9632;51.018;4.284;2024-03-02T11:45:28;12.80;99.90
18998;DHT22;9632;51.018;4.284;2024-03-02T11:47:56;12.80;99.90
18998;DHT22;9632;51.018;4.284;2024-03-02T11:50:50;12.80;99.90
18998;DHT22;9632;51.018;4.284;2024-03-02T11:53:16;12.80;99.90
18998;DHT22;9632;51.018;4.284;2024-03-02T11:55:42;12.90;99.90
18998;DHT22;9632;51.018;4.284;2024-03-02T11:58:12;12.90;99.90
18998;DHT22;9632;51.018;4.284;2024-03-02T12:00:38;12.90;99.90
18998;DHT22;9632;51.018;4.284;2024-03-02T12:03:05;13.00;99.90
18998;DHT22;9632;51.018;4.284;2024-03-02T12:05:32;12.90;99.90
18998;DHT22;9632;51.018;4.284;2024-03-02T12:07:59;13.00;99.90
18998;DHT22;9632;51.018;4.284;2024-03-02T12:10:26;13.00;99.90
18998;DHT22;9632;51.018;4.284;2024-03-02T12:13:18;13.20;99.90
18998;DHT22;9632;51.018;4.284;2024-03-02T12:15:44;13.40;99.90
18998;DHT22;9632;51.018;4.284;2024-03-02T12:18:12;13.60;99.90
18998;DHT22;9632;51.018;4.284;2024-03-02T12:20:38;13.60;99.90
18998;DHT22;9632;51.018;4.284;2024-03-02T12:23:04;13.80;99.90
18998;DHT22;9632;51.018;4.284;2024-03-02T12:25:32;13.70;99.90
18998;DHT22;9632;51.018;4.284;2024-03-02T12:28:01;13.70;99.90
18998;DHT22;9632;51.018;4.284;2024-03-02T12:30:29;13.80;99.90
18998;DHT22;9632;51.018;4.284;2024-03-02T12:32:55;13.80;99.90
18998;DHT22;9632;51.018;4.284;2024-03-02T12:35:21;13.90;99.90
18998;DHT22;9632;51.018;4.284;2024-03-02T12:37:52;13.90;99.90
18998;DHT22;9632;51.018;4.284;2024-03-02T12:40:19;13.90;99.90
18998;DHT22;9632;51.018;4.284;2024-03-02T12:42:46;14.00;99.90
18998;DHT22;9632;51.018;4.284;2024-03-02T12:45:13;14.00;99.90
18998;DHT22;9632;51.018;4.284;2024-03-02T12:47:40;14.00;99.90
18998;DHT22;9632;51.018;4.284;2024-03-02T12:50:07;14.20;99.90
18998;DHT22;9632;51.018;4.284;2024-03-02T12:52:33;14.30;99.90
18998;DHT22;9632;51.018;4.284;2024-03-02T12:55:05;14.40;99.90
18998;DHT22;9632;51.018;4.284;2024-03-02T12:57:33;14.40;99.90
18998;DHT22;9632;51.018;4.284;2024-03-02T13:00:00;14.40;99.90
18998;DHT22;9632;51.018;4.284;2024-03-02T13:02:30;14.40;99.90
18998;DHT22;9632;51.018;4.284;2024-03-02T13:04:57;14.40;99.90
18998;DHT22;9632;51.018;4.284;2024-03-02T13:07:24;14.30;99.90
18998;DHT22;9632;51.018;4.284;2024-03-02T13:09:51;14.20;99.90
18998;DHT22;9632;51.018;4.284;2024-03-02T13:12:19;14.10;99.90
18998;DHT22;9632;51.018;4.284;2024-03-02T13:14:47;14.00;99.90
18998;DHT22;9632;51.018;4.284;2024-03-02T13:17:13;14.10;99.90
18998;DHT22;9632;51.018;4.284;2024-03-02T13:19:50;14.10;99.90
18998;DHT22;9632;51.018;4.284;2024-03-02T13:22:16;14.00;99.90
18998;DHT22;9632;51.018;4.284;2024-03-02T13:24:42;14.00;99.90
18998;DHT22;9632;51.018;4.284;2024-03-02T13:27:08;14.10;99.90
18998;DHT22;9632;51.018;4.284;2024-03-02T13:29:34;14.10;99.90
18998;DHT22;9632;51.018;4.284;2024-03-02T13:31:59;14.10;99.90
18998;DHT22;9632;51.018;4.284;2024-03-02T13:34:25;14.10;99.90
18998;DHT22;9632;51.018;4.284;2024-03-02T13:36:51;14.10;99.90
18998;DHT22;9632;51.018;4.284;2024-03-02T13:39:16;14.10;99.90
18998;DHT22;9632;51.018;4.284;2024-03-02T13:41:42;14.10;99.90
18998;DHT22;9632;51.018;4.284;2024-03-02T13:44:10;14.10;99.90
18998;DHT22;9632;51.018;4.284;2024-03-02T13:46:35;14.10;99.90
18998;DHT22;9632;51.018;4.284;2024-03-02T13:49:01;14.10;99.90
18998;DHT22;9632;51.018;4.284;2024-03-02T13:51:27;14.10;99.90
18998;DHT22;9632;51.018;4.284;2024-03-02T13:53:52;14.10;99.90
18998;DHT22;9632;51.018;4.284;2024-03-02T13:56:18;14.10;99.90
18998;DHT22;9632;51.018;4.284;2024-03-02T13:58:44;14.20;99.90
18998;DHT22;9632;51.018;4.284;2024-03-02T14:01:11;14.10;99.90
18998;DHT22;9632;51.018;4.284;2024-03-02T14:03:37;14.20;99.90
18998;DHT22;9632;51.018;4.284;2024-03-02T14:06:03;14.20;99.90
18998;DHT22;9632;51.018;4.284;2024-03-02T14:08:29;14.00;99.90
18998;DHT22;9632;51.018;4.284;2024-03-02T14:10:55;14.00;99.90
18998;DHT22;9632;51.018;4.284;2024-03-02T14:13:23;14.00;99.90
18998;DHT22;9632;51.018;4.284;2024-03-02T14:15:49;14.10;99.90
18998;DHT22;9632;51.018;4.284;2024-03-02T14:18:15;14.20;99.90
18998;DHT22;9632;51.018;4.284;2024-03-02T14:20:40;14.20;99.90
18998;DHT22;9632;51.018;4.284;2024-03-02T14:23:07;14.20;99.90
18998;DHT22;9632;51.018;4.284;2024-03-02T14:25:35;14.20;99.90
18998;DHT22;9632;51.018;4.284;2024-03-02T14:28:01;14.20;99.90
18998;DHT22;9632;51.018;4.284;2024-03-02T14:30:26;14.20;99.90
18998;DHT22;9632;51.018;4.284;2024-03-02T14:32:52;14.20;99.90
18998;DHT22;9632;51.018;4.284;2024-03-02T14:35:18;14.10;99.90
18998;DHT22;9632;51.018;4.284;2024-03-02T14:37:44;14.10;99.90
18998;DHT22;9632;51.018;4.284;2024-03-02T14:40:10;14.00;99.90
18998;DHT22;9632;51.018;4.284;2024-03-02T14:42:36;14.00;99.90
18998;DHT22;9632;51.018;4.284;2024-03-02T14:45:03;14.00;99.90
18998;DHT22;9632;51.018;4.284;2024-03-02T14:47:31;13.90;99.90
18998;DHT22;9632;51.018;4.284;2024-03-02T14:49:58;13.80;99.90
18998;DHT22;9632;51.018;4.284;2024-03-02T14:52:23;13.80;99.90
18998;DHT22;9632;51.018;4.284;2024-03-02T14:54:49;13.90;99.90
18998;DHT22;9632;51.018;4.284;2024-03-02T14:57:15;13.80;99.90
18998;DHT22;9632;51.018;4.284;2024-03-02T14:59:40;13.90;99.90
18998;DHT22;9632;51.018;4.284;2024-03-02T15:02:07;13.90;99.90
18998;DHT22;9632;51.018;4.284;2024-03-02T15:04:33;13.90;99.90
18998;DHT22;9632;51.018;4.284;2024-03-02T15:06:59;13.90;99.90
18998;DHT22;9632;51.018;4.284;2024-03-02T15:09:25;13.90;99.90
18998;DHT22;9632;51.018;4.284;2024-03-02T15:11:50;13.90;99.90
18998;DHT22;9632;51.018;4.284;2024-03-02T15:14:16;13.80;99.90
18998;DHT22;9632;51.018;4.284;2024-03-02T15:16:42;13.90;99.90
18998;DHT22;9632;51.018;4.284;2024-03-02T15:19:08;13.90;99.90
18998;DHT22;9632;51.018;4.284;2024-03-02T15:21:33;13.90;99.90
18998;DHT22;9632;51.018;4.284;2024-03-02T15:23:59;13.90;99.90
18998;DHT22;9632;51.018;4.284;2024-03-02T15:26:25;13.90;99.90
18998;DHT22;9632;51.018;4.284;2024-03-02T15:28:51;13.90;99.90
18998;DHT22;9632;51.018;4.284;2024-03-02T15:31:18;13.80;99.90
18998;DHT22;9632;51.018;4.284;2024-03-02T15:33:44;13.80;99.90
18998;DHT22;9632;51.018;4.284;2024-03-02T15:36:10;13.80;99.90
18998;DHT22;9632;51.018;4.284;2024-03-02T15:38:35;13.70;99.90
18998;DHT22;9632;51.018;4.284;2024-03-02T15:41:03;13.70;99.90
18998;DHT22;9632;51.018;4.284;2024-03-02T15:43:29;13.60;99.90
18998;DHT22;9632;51.018;4.284;2024-03-02T15:45:56;13.60;99.90
18998;DHT22;9632;51.018;4.284;2024-03-02T15:48:22;13.60;99.90
18998;DHT22;9632;51.018;4.284;2024-03-02T15:50:49;13.50;99.90
18998;DHT22;9632;51.018;4.284;2024-03-02T15:53:16;13.60;99.90
18998;DHT22;9632;51.018;4.284;2024-03-02T15:55:41;13.50;99.90
18998;DHT22;9632;51.018;4.284;2024-03-02T15:58:07;13.50;99.90
18998;DHT22;9632;51.018;4.284;2024-03-02T16:00:33;13.50;99.90
18998;DHT22;9632;51.018;4.284;2024-03-02T16:02:58;13.50;99.90